sensor_id;sensor_type;location;lat;lon;timestamp;pressure;altitude;pressure_sealevel;temperature;humidity
21357;BME280;10836;53.068;18.234;2023-04-16T00:01:59;100959.88;;;8.00;100.00
21357;BME280;10836;53.068;18.234;2023-04-16T00:04:26;100955.25;;;8.01;100.00
21357;BME280;10836;53.068;18.234;2023-04-16T00:06:53;100949.50;;;7.97;100.00
21357;BME280;10836;53.068;18.234;2023-04-16T00:09:20;100955.75;;;7.98;100.00
21357;BME280;10836;53.068;18.234;2023-04-16T00:11:47;100956.56;;;7.98;100.00
21357;BME280;10836;53.068;18.234;2023-04-16T00:14:14;100965.31;;;8.00;100.00
21357;BME280;10836;53.068;18.234;2023-04-16T00:16:41;100965.06;;;8.02;100.00
21357;BME280;10836;53.068;18.234;2023-04-16T00:19:08;100962.00;;;7.98;100.00
21357;BME280;10836;53.068;18.234;2023-04-16T00:21:36;100972.06;;;7.98;100.00
21357;BME280;10836;53.068;18.234;2023-04-16T00:24:02;100970.81;;;8.06;100.00
21357;BME280;10836;53.068;18.234;2023-04-16T00:26:29;100971.41;;;7.91;100.00
21357;BME280;10836;53.068;18.234;2023-04-16T00:28:57;100966.88;;;7.96;100.00
21357;BME280;10836;53.068;18.234;2023-04-16T00:31:28;100969.09;;;7.99;100.00
21357;BME280;10836;53.068;18.234;2023-04-16T00:33:56;100974.03;;;8.02;100.00
21357;BME280;10836;53.068;18.234;2023-04-16T00:36:25;100976.19;;;8.00;100.00
21357;BME280;10836;53.068;18.234;2023-04-16T00:38:53;100965.16;;;7.90;100.00
21357;BME280;10836;53.068;18.234;2023-04-16T00:41:20;100975.28;;;7.95;100.00
21357;BME280;10836;53.068;18.234;2023-04-16T00:43:49;100972.06;;;7.81;100.00
21357;BME280;10836;53.068;18.234;2023-04-16T00:46:18;100967.66;;;7.75;100.00
21357;BME280;10836;53.068;18.234;2023-04-16T00:48:45;100967.53;;;7.87;100.00
21357;BME280;10836;53.068;18.234;2023-04-16T00:51:12;100966.84;;;7.75;100.00
21357;BME280;10836;53.068;18.234;2023-04-16T00:53:39;100967.66;;;7.75;100.00
21357;BME280;10836;53.068;18.234;2023-04-16T00:56:06;100978.03;;;7.78;100.00
21357;BME280;10836;53.068;18.234;2023-04-16T00:58:34;100975.81;;;7.75;100.00
21357;BME280;10836;53.068;18.234;2023-04-16T01:01:01;100981.31;;;7.80;100.00
21357;BME280;10836;53.068;18.234;2023-04-16T01:03:36;100981.31;;;7.80;100.00
21357;BME280;10836;53.068;18.234;2023-04-16T01:06:05;100989.47;;;7.80;100.00
21357;BME280;10836;53.068;18.234;2023-04-16T01:08:33;100980.81;;;7.83;100.00
21357;BME280;10836;53.068;18.234;2023-04-16T01:11:00;100988.38;;;7.81;100.00
21357;BME280;10836;53.068;18.234;2023-04-16T01:13:27;100987.41;;;7.87;100.00
21357;BME280;10836;53.068;18.234;2023-04-16T01:15:54;100984.59;;;7.82;100.00
21357;BME280;10836;53.068;18.234;2023-04-16T01:18:22;100990.94;;;7.88;100.00
21357;BME280;10836;53.068;18.234;2023-04-16T01:20:49;100986.91;;;7.90;100.00
21357;BME280;10836;53.068;18.234;2023-04-16T01:23:17;100990.63;;;7.84;100.00
21357;BME280;10836;53.068;18.234;2023-04-16T01:25:45;100994.84;;;7.75;100.00
21357;BME280;10836;53.068;18.234;2023-04-16T01:28:12;100997.13;;;7.83;100.00
21357;BME280;10836;53.068;18.234;2023-04-16T01:30:40;100986.00;;;7.85;100.00
21357;BME280;10836;53.068;18.234;2023-04-16T01:33:28;100990.56;;;7.79;100.00
21357;BME280;10836;53.068;18.234;2023-04-16T01:35:55;100994.66;;;7.82;100.00
21357;BME280;10836;53.068;18.234;2023-04-16T01:38:22;100991.19;;;7.86;100.00
21357;BME280;10836;53.068;18.234;2023-04-16T01:40:49;100993.34;;;7.84;100.00
21357;BME280;10836;53.068;18.234;2023-04-16T01:43:16;100988.22;;;7.88;100.00
21357;BME280;10836;53.068;18.234;2023-04-16T01:45:43;100980.97;;;7.93;100.00
21357;BME280;10836;53.068;18.234;2023-04-16T01:48:10;100986.09;;;7.90;100.00
21357;BME280;10836;53.068;18.234;2023-04-16T01:50:38;100991.69;;;7.83;100.00
21357;BME280;10836;53.068;18.234;2023-04-16T01:53:05;100988.91;;;7.78;100.00
21357;BME280;10836;53.068;18.234;2023-04-16T01:55:32;100987.91;;;7.84;100.00
21357;BME280;10836;53.068;18.234;2023-04-16T01:58:00;100993.16;;;7.91;100.00
21357;BME280;10836;53.068;18.234;2023-04-16T02:00:32;100995.63;;;7.92;100.00
21357;BME280;10836;53.068;18.234;2023-04-16T02:02:58;100990.69;;;7.89;100.00
21357;BME280;10836;53.068;18.234;2023-04-16T02:05:27;100985.28;;;7.73;100.00
21357;BME280;10836;53.068;18.234;2023-04-16T02:07:54;100993.81;;;7.81;100.00
21357;BME280;10836;53.068;18.234;2023-04-16T02:10:21;100996.63;;;7.86;100.00
21357;BME280;10836;53.068;18.234;2023-04-16T02:12:48;100992.84;;;7.87;100.00
21357;BME280;10836;53.068;18.234;2023-04-16T02:15:16;100989.88;;;7.89;100.00
21357;BME280;10836;53.068;18.234;2023-04-16T02:17:43;100995.06;;;7.90;100.00
21357;BME280;10836;53.068;18.234;2023-04-16T02:20:12;100991.53;;;7.90;100.00
21357;BME280;10836;53.068;18.234;2023-04-16T02:22:53;100998.94;;;7.94;100.00
21357;BME280;10836;53.068;18.234;2023-04-16T02:25:22;101000.59;;;7.95;100.00
21357;BME280;10836;53.068;18.234;2023-04-16T02:27:53;101004.88;;;7.91;100.00
21357;BME280;10836;53.068;18.234;2023-04-16T02:30:30;100999.94;;;7.88;100.00
21357;BME280;10836;53.068;18.234;2023-04-16T02:32:57;101003.72;;;7.87;100.00
21357;BME280;10836;53.068;18.234;2023-04-16T02:35:24;100999.34;;;7.86;100.00
21357;BME280;10836;53.068;18.234;2023-04-16T02:37:51;100998.16;;;7.77;100.00
21357;BME280;10836;53.068;18.234;2023-04-16T02:40:18;101005.22;;;7.78;100.00
21357;BME280;10836;53.068;18.234;2023-04-16T02:42:45;101003.06;;;7.80;100.00
21357;BME280;10836;53.068;18.234;2023-04-16T02:45:12;101006.06;;;7.79;100.00
21357;BME280;10836;53.068;18.234;2023-04-16T02:47:39;101005.22;;;7.78;100.00
21357;BME280;10836;53.068;18.234;2023-04-16T02:50:07;101001.94;;;7.76;100.00
21357;BME280;10836;53.068;18.234;2023-04-16T02:52:34;101005.22;;;7.78;100.00
21357;BME280;10836;53.068;18.234;2023-04-16T02:55:01;101012.31;;;7.79;100.00
21357;BME280;10836;53.068;18.234;2023-04-16T02:57:28;101003.00;;;7.75;100.00
21357;BME280;10836;53.068;18.234;2023-04-16T02:59:55;101008.69;;;7.74;100.00
21357;BME280;10836;53.068;18.234;2023-04-16T03:02:22;101015.78;;;7.75;100.00
21357;BME280;10836;53.068;18.234;2023-04-16T03:04:49;101010.00;;;7.71;100.00
21357;BME280;10836;53.068;18.234;2023-04-16T03:07:16;101013.28;;;7.73;100.00
21357;BME280;10836;53.068;18.234;2023-04-16T03:09:44;101010.50;;;7.68;100.00
21357;BME280;10836;53.068;18.234;2023-04-16T03:12:11;101019.31;;;7.75;100.00
21357;BME280;10836;53.068;18.234;2023-04-16T03:14:38;101013.78;;;7.70;100.00
21357;BME280;10836;53.068;18.234;2023-04-16T03:17:05;101019.72;;;7.67;100.00
21357;BME280;10836;53.068;18.234;2023-04-16T03:19:32;101023.41;;;7.61;100.00
21357;BME280;10836;53.068;18.234;2023-04-16T03:21:59;101028.91;;;7.49;100.00
21357;BME280;10836;53.068;18.234;2023-04-16T03:24:26;101022.25;;;7.57;100.00
21357;BME280;10836;53.068;18.234;2023-04-16T03:26:56;101028.28;;;7.59;100.00
21357;BME280;10836;53.068;18.234;2023-04-16T03:29:24;101023.50;;;7.66;100.00
21357;BME280;10836;53.068;18.234;2023-04-16T03:31:53;101028.94;;;7.66;100.00
21357;BME280;10836;53.068;18.234;2023-04-16T03:34:22;101033.22;;;7.62;100.00
21357;BME280;10836;53.068;18.234;2023-04-16T03:36:49;101031.47;;;7.56;100.00
21357;BME280;10836;53.068;18.234;2023-04-16T03:39:16;101036.81;;;7.51;100.00
21357;BME280;10836;53.068;18.234;2023-04-16T03:41:43;101035.59;;;7.58;100.00
21357;BME280;10836;53.068;18.234;2023-04-16T03:44:10;101035.84;;;7.57;100.00
21357;BME280;10836;53.068;18.234;2023-04-16T03:46:37;101041.94;;;7.64;100.00
21357;BME280;10836;53.068;18.234;2023-04-16T03:49:04;101041.78;;;7.54;100.00
21357;BME280;10836;53.068;18.234;2023-04-16T03:51:31;101040.59;;;7.50;100.00
21357;BME280;10836;53.068;18.234;2023-04-16T03:53:58;101047.19;;;7.54;100.00
21357;BME280;10836;53.068;18.234;2023-04-16T03:56:26;101055.34;;;7.54;100.00
21357;BME280;10836;53.068;18.234;2023-04-16T03:58:53;101054.63;;;7.58;100.00
21357;BME280;10836;53.068;18.234;2023-04-16T04:01:20;101056.59;;;7.63;100.00
21357;BME280;10836;53.068;18.234;2023-04-16T04:03:48;101064.66;;;7.58;100.00
21357;BME280;10836;53.068;18.234;2023-04-16T04:06:15;101058.00;;;7.65;100.00
21357;BME280;10836;53.068;18.234;2023-04-16T04:08:42;101064.66;;;7.58;100.00
21357;BME280;10836;53.068;18.234;2023-04-16T04:11:09;101071.75;;;7.59;100.00
21357;BME280;10836;53.068;18.234;2023-04-16T04:13:38;101064.19;;;7.61;100.00
21357;BME280;10836;53.068;18.234;2023-04-16T04:16:05;101076.78;;;7.67;100.00
21357;BME280;10836;53.068;18.234;2023-04-16T04:18:32;101068.94;;;7.54;100.00
21357;BME280;10836;53.068;18.234;2023-04-16T04:21:04;101067.63;;;7.56;100.00
21357;BME280;10836;53.068;18.234;2023-04-16T04:23:32;101075.06;;;7.61;100.00
21357;BME280;10836;53.068;18.234;2023-04-16T04:25:59;101078.16;;;7.53;100.00
21357;BME280;10836;53.068;18.234;2023-04-16T04:28:33;101080.97;;;7.58;100.00
21357;BME280;10836;53.068;18.234;2023-04-16T04:31:00;101081.47;;;7.55;100.00
21357;BME280;10836;53.068;18.234;2023-04-16T04:33:29;101082.44;;;7.49;100.00
21357;BME280;10836;53.068;18.234;2023-04-16T04:35:57;101078.25;;;7.58;100.00
21357;BME280;10836;53.068;18.234;2023-04-16T04:38:24;101080.97;;;7.58;100.00
21357;BME280;10836;53.068;18.234;2023-04-16T04:40:52;101085.72;;;7.51;100.00
21357;BME280;10836;53.068;18.234;2023-04-16T04:43:22;101084.22;;;7.43;100.00
21357;BME280;10836;53.068;18.234;2023-04-16T04:45:49;101084.19;;;7.55;100.00
21357;BME280;10836;53.068;18.234;2023-04-16T04:48:17;101085.25;;;7.54;100.00
21357;BME280;10836;53.068;18.234;2023-04-16T04:50:44;101083.13;;;7.56;100.00
21357;BME280;10836;53.068;18.234;2023-04-16T04:53:13;101089.38;;;7.56;100.00
21357;BME280;10836;53.068;18.234;2023-04-16T04:55:41;101086.69;;;7.45;100.00
21357;BME280;10836;53.068;18.234;2023-04-16T04:58:08;101087.88;;;7.49;100.00
21357;BME280;10836;53.068;18.234;2023-04-16T05:00:36;101089.06;;;7.41;100.00
21357;BME280;10836;53.068;18.234;2023-04-16T05:03:04;101095.59;;;7.40;100.00
21357;BME280;10836;53.068;18.234;2023-04-16T05:05:32;101106.66;;;7.50;100.00
21357;BME280;10836;53.068;18.234;2023-04-16T05:07:59;101104.16;;;7.49;100.00
21357;BME280;10836;53.068;18.234;2023-04-16T05:10:26;101107.63;;;7.44;100.00
21357;BME280;10836;53.068;18.234;2023-04-16T05:12:53;101103.31;;;7.31;100.00
21357;BME280;10836;53.068;18.234;2023-04-16T05:15:20;101111.97;;;7.17;100.00
21357;BME280;10836;53.068;18.234;2023-04-16T05:17:47;101106.41;;;7.23;100.00
21357;BME280;10836;53.068;18.234;2023-04-16T05:20:14;101112.06;;;7.33;100.00
21357;BME280;10836;53.068;18.234;2023-04-16T05:22:41;101116.91;;;7.31;100.00
21357;BME280;10836;53.068;18.234;2023-04-16T05:25:08;101113.84;;;7.28;100.00
21357;BME280;10836;53.068;18.234;2023-04-16T05:27:36;101113.13;;;7.32;100.00
21357;BME280;10836;53.068;18.234;2023-04-16T05:30:03;101123.06;;;7.27;100.00
21357;BME280;10836;53.068;18.234;2023-04-16T05:32:31;101127.19;;;7.29;100.00
21357;BME280;10836;53.068;18.234;2023-04-16T05:34:57;101124.56;;;7.34;100.00
21357;BME280;10836;53.068;18.234;2023-04-16T05:37:25;101125.66;;;7.22;100.00
21357;BME280;10836;53.068;18.234;2023-04-16T05:39:51;101126.00;;;7.25;100.00
21357;BME280;10836;53.068;18.234;2023-04-16T05:42:18;101128.13;;;7.35;100.00
21357;BME280;10836;53.068;18.234;2023-04-16T05:44:45;101135.34;;;7.29;100.00
21357;BME280;10836;53.068;18.234;2023-04-16T05:47:12;101132.13;;;7.32;100.00
21357;BME280;10836;53.068;18.234;2023-04-16T05:49:39;101131.81;;;7.46;100.00
21357;BME280;10836;53.068;18.234;2023-04-16T05:52:06;101139.53;;;7.37;100.00
21357;BME280;10836;53.068;18.234;2023-04-16T05:54:33;101136.75;;;7.32;100.00
21357;BME280;10836;53.068;18.234;2023-04-16T05:57:00;101136.19;;;7.47;100.00
21357;BME280;10836;53.068;18.234;2023-04-16T05:59:27;101146.72;;;7.43;100.00
21357;BME280;10836;53.068;18.234;2023-04-16T06:01:55;101142.47;;;7.47;100.00
21357;BME280;10836;53.068;18.234;2023-04-16T06:04:23;101147.84;;;7.30;100.00
21357;BME280;10836;53.068;18.234;2023-04-16T06:06:50;101149.84;;;7.35;100.00
21357;BME280;10836;53.068;18.234;2023-04-16T06:09:16;101149.97;;;7.28;100.00
21357;BME280;10836;53.068;18.234;2023-04-16T06:11:44;101154.94;;;7.31;100.00
21357;BME280;10836;53.068;18.234;2023-04-16T06:14:11;101156.09;;;7.36;100.00
21357;BME280;10836;53.068;18.234;2023-04-16T06:16:38;101155.19;;;7.30;100.00
21357;BME280;10836;53.068;18.234;2023-04-16T06:19:05;101162.03;;;7.21;100.00
21357;BME280;10836;53.068;18.234;2023-04-16T06:21:32;101163.56;;;7.28;100.00
21357;BME280;10836;53.068;18.234;2023-04-16T06:24:00;101175.72;;;7.26;100.00
21357;BME280;10836;53.068;18.234;2023-04-16T06:26:27;101179.16;;;7.21;100.00
21357;BME280;10836;53.068;18.234;2023-04-16T06:28:53;101174.09;;;7.25;100.00
21357;BME280;10836;53.068;18.234;2023-04-16T06:31:21;101182.94;;;7.20;100.00
21357;BME280;10836;53.068;18.234;2023-04-16T06:33:48;101184.13;;;7.24;100.00
21357;BME280;10836;53.068;18.234;2023-04-16T06:36:15;101179.97;;;7.33;100.00
21357;BME280;10836;53.068;18.234;2023-04-16T06:38:42;101180.38;;;7.42;100.00
21357;BME280;10836;53.068;18.234;2023-04-16T06:41:09;101181.47;;;7.41;100.00
21357;BME280;10836;53.068;18.234;2023-04-16T06:43:36;101178.13;;;7.51;100.00
21357;BME280;10836;53.068;18.234;2023-04-16T06:46:03;101177.31;;;7.50;100.00
21357;BME280;10836;53.068;18.234;2023-04-16T06:48:30;101184.03;;;7.48;100.00
21357;BME280;10836;53.068;18.234;2023-04-16T06:50:57;101182.13;;;7.60;100.00
21357;BME280;10836;53.068;18.234;2023-04-16T06:53:24;101187.22;;;7.56;100.00
21357;BME280;10836;53.068;18.234;2023-04-16T06:55:51;101182.50;;;7.52;100.00
21357;BME280;10836;53.068;18.234;2023-04-16T06:58:18;101191.25;;;7.42;100.00
21357;BME280;10836;53.068;18.234;2023-04-16T07:00:45;101190.44;;;7.42;100.00
21357;BME280;10836;53.068;18.234;2023-04-16T07:03:12;101189.69;;;7.58;100.00
21357;BME280;10836;53.068;18.234;2023-04-16T07:05:40;101191.03;;;7.44;100.00
21357;BME280;10836;53.068;18.234;2023-04-16T07:08:07;101191.81;;;7.56;100.00
21357;BME280;10836;53.068;18.234;2023-04-16T07:10:34;101195.69;;;7.60;100.00
21357;BME280;10836;53.068;18.234;2023-04-16T07:13:00;101198.53;;;7.65;100.00
21357;BME280;10836;53.068;18.234;2023-04-16T07:15:28;101195.91;;;7.70;100.00
21357;BME280;10836;53.068;18.234;2023-04-16T07:17:54;101207.84;;;7.69;100.00
21357;BME280;10836;53.068;18.234;2023-04-16T07:20:21;101202.31;;;7.64;100.00
21357;BME280;10836;53.068;18.234;2023-04-16T07:22:48;101204.91;;;7.87;100.00
21357;BME280;10836;53.068;18.234;2023-04-16T07:25:15;101209.25;;;7.72;100.00
21357;BME280;10836;53.068;18.234;2023-04-16T07:27:42;101218.41;;;7.82;100.00
21357;BME280;10836;53.068;18.234;2023-04-16T07:30:10;101206.56;;;7.88;100.00
21357;BME280;10836;53.068;18.234;2023-04-16T07:32:36;101212.84;;;7.89;100.00
21357;BME280;10836;53.068;18.234;2023-04-16T07:35:04;101206.56;;;7.88;100.00
21357;BME280;10836;53.068;18.234;2023-04-16T07:37:31;101217.44;;;8.17;100.00
21357;BME280;10836;53.068;18.234;2023-04-16T07:39:58;101217.34;;;8.12;100.00
21357;BME280;10836;53.068;18.234;2023-04-16T07:42:26;101225.13;;;8.20;100.00
21357;BME280;10836;53.068;18.234;2023-04-16T07:44:54;101224.44;;;8.13;100.00
21357;BME280;10836;53.068;18.234;2023-04-16T07:47:21;101220.66;;;8.14;100.00
21357;BME280;10836;53.068;18.234;2023-04-16T07:49:49;101220.47;;;8.04;100.00
21357;BME280;10836;53.068;18.234;2023-04-16T07:52:16;101222.97;;;8.22;100.00
21357;BME280;10836;53.068;18.234;2023-04-16T07:54:43;101221.97;;;8.28;100.00
21357;BME280;10836;53.068;18.234;2023-04-16T07:57:10;101224.94;;;8.10;100.00
21357;BME280;10836;53.068;18.234;2023-04-16T07:59:38;101226.91;;;8.31;100.00
21357;BME280;10836;53.068;18.234;2023-04-16T08:02:05;101227.06;;;8.24;100.00
21357;BME280;10836;53.068;18.234;2023-04-16T08:04:33;101227.53;;;8.33;100.00
21357;BME280;10836;53.068;18.234;2023-04-16T08:07:00;101236.00;;;8.20;100.00
21357;BME280;10836;53.068;18.234;2023-04-16T08:09:27;101237.94;;;8.24;100.00
21357;BME280;10836;53.068;18.234;2023-04-16T08:11:54;101235.50;;;8.23;100.00
21357;BME280;10836;53.068;18.234;2023-04-16T08:14:21;101235.13;;;8.02;100.00
21357;BME280;10836;53.068;18.234;2023-04-16T08:16:48;101234.59;;;7.89;100.00
21357;BME280;10836;53.068;18.234;2023-04-16T08:19:15;101243.78;;;7.99;100.00
21357;BME280;10836;53.068;18.234;2023-04-16T08:21:43;101238.44;;;8.05;100.00
21357;BME280;10836;53.068;18.234;2023-04-16T08:24:10;101255.03;;;7.91;100.00
21357;BME280;10836;53.068;18.234;2023-04-16T08:26:37;101252.03;;;7.76;100.00
21357;BME280;10836;53.068;18.234;2023-04-16T08:29:04;101255.81;;;7.75;100.00
21357;BME280;10836;53.068;18.234;2023-04-16T08:31:31;101256.69;;;7.92;100.00
21357;BME280;10836;53.068;18.234;2023-04-16T08:33:59;101256.41;;;8.06;100.00
21357;BME280;10836;53.068;18.234;2023-04-16T08:36:26;101261.44;;;8.14;100.00
21357;BME280;10836;53.068;18.234;2023-04-16T08:38:53;101264.84;;;8.21;100.00
21357;BME280;10836;53.068;18.234;2023-04-16T08:41:20;101262.66;;;8.34;100.00
21357;BME280;10836;53.068;18.234;2023-04-16T08:43:49;101258.41;;;8.27;100.00
21357;BME280;10836;53.068;18.234;2023-04-16T08:46:18;101283.31;;;8.19;100.00
21357;BME280;10836;53.068;18.234;2023-04-16T08:48:53;101268.34;;;8.33;100.00
21357;BME280;10836;53.068;18.234;2023-04-16T08:51:21;101275.44;;;8.34;100.00
21357;BME280;10836;53.068;18.234;2023-04-16T08:53:52;101276.78;;;8.48;100.00
21357;BME280;10836;53.068;18.234;2023-04-16T08:56:22;101281.41;;;8.48;100.00
21357;BME280;10836;53.068;18.234;2023-04-16T08:58:50;101285.47;;;8.62;100.00
21357;BME280;10836;53.068;18.234;2023-04-16T09:01:21;101289.66;;;8.70;100.00
21357;BME280;10836;53.068;18.234;2023-04-16T09:03:48;101288.66;;;8.42;100.00
21357;BME280;10836;53.068;18.234;2023-04-16T09:06:16;101292.63;;;8.51;100.00
21357;BME280;10836;53.068;18.234;2023-04-16T09:08:44;101291.28;;;8.37;100.00
21357;BME280;10836;53.068;18.234;2023-04-16T09:11:18;101298.97;;;8.40;100.00
21357;BME280;10836;53.068;18.234;2023-04-16T09:13:46;101301.81;;;8.33;100.00
21357;BME280;10836;53.068;18.234;2023-04-16T09:16:13;101300.38;;;8.43;100.00
21357;BME280;10836;53.068;18.234;2023-04-16T09:18:41;101308.69;;;8.24;100.00
21357;BME280;10836;53.068;18.234;2023-04-16T09:21:11;101308.09;;;8.34;100.00
21357;BME280;10836;53.068;18.234;2023-04-16T09:23:39;101308.03;;;8.46;100.00
21357;BME280;10836;53.068;18.234;2023-04-16T09:26:06;101311.09;;;8.49;100.00
21357;BME280;10836;53.068;18.234;2023-04-16T09:28:44;101320.00;;;8.45;100.00
21357;BME280;10836;53.068;18.234;2023-04-16T09:33:40;101320.94;;;8.67;100.00
21357;BME280;10836;53.068;18.234;2023-04-16T09:36:08;101316.56;;;8.83;100.00
21357;BME280;10836;53.068;18.234;2023-04-16T09:38:49;101322.19;;;8.59;100.00
21357;BME280;10836;53.068;18.234;2023-04-16T09:41:16;101322.19;;;8.76;100.00
21357;BME280;10836;53.068;18.234;2023-04-16T09:43:57;101320.06;;;8.95;100.00
21357;BME280;10836;53.068;18.234;2023-04-16T09:46:33;101321.63;;;8.91;100.00
21357;BME280;10836;53.068;18.234;2023-04-16T09:49:14;101331.63;;;9.02;100.00
21357;BME280;10836;53.068;18.234;2023-04-16T09:51:47;101323.00;;;9.10;100.00
21357;BME280;10836;53.068;18.234;2023-04-16T09:54:15;101330.53;;;9.03;100.00
21357;BME280;10836;53.068;18.234;2023-04-16T09:56:44;101327.53;;;9.21;100.00
21357;BME280;10836;53.068;18.234;2023-04-16T09:59:18;101341.66;;;9.18;100.00
21357;BME280;10836;53.068;18.234;2023-04-16T10:01:46;101329.09;;;9.17;100.00
21357;BME280;10836;53.068;18.234;2023-04-16T10:04:15;101337.63;;;9.04;100.00
21357;BME280;10836;53.068;18.234;2023-04-16T10:06:43;101336.22;;;9.18;100.00
21357;BME280;10836;53.068;18.234;2023-04-16T10:09:10;101338.19;;;9.40;100.00
21357;BME280;10836;53.068;18.234;2023-04-16T10:11:38;101346.69;;;9.43;100.00
21357;BME280;10836;53.068;18.234;2023-04-16T10:14:05;101351.56;;;9.24;100.00
21357;BME280;10836;53.068;18.234;2023-04-16T10:16:32;101349.75;;;9.30;100.00
21357;BME280;10836;53.068;18.234;2023-04-16T10:19:00;101352.06;;;9.21;100.00
21357;BME280;10836;53.068;18.234;2023-04-16T10:21:27;101354.38;;;9.29;100.00
21357;BME280;10836;53.068;18.234;2023-04-16T10:24:00;101352.41;;;9.08;100.00
21357;BME280;10836;53.068;18.234;2023-04-16T10:26:28;101344.31;;;9.13;100.00
21357;BME280;10836;53.068;18.234;2023-04-16T10:28:57;101355.28;;;9.18;100.00
21357;BME280;10836;53.068;18.234;2023-04-16T10:31:24;101353.78;;;9.44;100.00
21357;BME280;10836;53.068;18.234;2023-04-16T10:33:53;101357.69;;;9.31;100.00
21357;BME280;10836;53.068;18.234;2023-04-16T10:36:23;101354.69;;;9.50;100.00
21357;BME280;10836;53.068;18.234;2023-04-16T10:38:51;101359.84;;;9.68;100.00
21357;BME280;10836;53.068;18.234;2023-04-16T10:41:19;101360.34;;;9.65;100.00
21357;BME280;10836;53.068;18.234;2023-04-16T10:43:50;101361.72;;;9.84;100.00
21357;BME280;10836;53.068;18.234;2023-04-16T10:48:52;101369.19;;;9.72;100.00
21357;BME280;10836;53.068;18.234;2023-04-16T10:51:23;101365.84;;;9.87;100.00
21357;BME280;10836;53.068;18.234;2023-04-16T10:53:53;101371.75;;;9.62;100.00
21357;BME280;10836;53.068;18.234;2023-04-16T10:56:25;101370.91;;;9.40;100.00
21357;BME280;10836;53.068;18.234;2023-04-16T10:58:53;101373.91;;;9.60;100.00
21357;BME280;10836;53.068;18.234;2023-04-16T11:01:40;101375.84;;;9.43;100.00
21357;BME280;10836;53.068;18.234;2023-04-16T11:07:06;101374.19;;;9.42;100.00
21357;BME280;10836;53.068;18.234;2023-04-16T11:12:31;101380.44;;;9.59;100.00
21357;BME280;10836;53.068;18.234;2023-04-16T11:15:00;101383.72;;;9.61;100.00
21357;BME280;10836;53.068;18.234;2023-04-16T11:20:28;101388.38;;;9.10;100.00
21357;BME280;10836;53.068;18.234;2023-04-16T11:22:56;101386.25;;;9.12;100.00
21357;BME280;10836;53.068;18.234;2023-04-16T11:25:27;101393.41;;;8.85;100.00
21357;BME280;10836;53.068;18.234;2023-04-16T11:28:00;101404.41;;;8.90;100.00
21357;BME280;10836;53.068;18.234;2023-04-16T11:30:32;101397.81;;;9.03;100.00
21357;BME280;10836;53.068;18.234;2023-04-16T11:33:02;101402.59;;;9.12;100.00
21357;BME280;10836;53.068;18.234;2023-04-16T11:35:30;101402.00;;;9.10;100.00
21357;BME280;10836;53.068;18.234;2023-04-16T11:37:57;101402.84;;;9.27;100.00
21357;BME280;10836;53.068;18.234;2023-04-16T11:40:28;101402.59;;;9.12;100.00
21357;BME280;10836;53.068;18.234;2023-04-16T11:43:00;101396.97;;;9.19;100.00
21357;BME280;10836;53.068;18.234;2023-04-16T11:45:27;101415.28;;;8.90;100.00
21357;BME280;10836;53.068;18.234;2023-04-16T11:47:54;101416.16;;;9.07;100.00
21357;BME280;10836;53.068;18.234;2023-04-16T11:50:24;101411.53;;;9.24;100.00
21357;BME280;10836;53.068;18.234;2023-04-16T11:52:53;101415.16;;;9.30;100.00
21357;BME280;10836;53.068;18.234;2023-04-16T11:55:21;101414.59;;;9.45;100.00
21357;BME280;10836;53.068;18.234;2023-04-16T11:57:49;101409.72;;;9.47;100.00
21357;BME280;10836;53.068;18.234;2023-04-16T12:00:17;101408.72;;;9.53;100.00
21357;BME280;10836;53.068;18.234;2023-04-16T12:02:51;101417.66;;;9.48;100.00
21357;BME280;10836;53.068;18.234;2023-04-16T12:05:34;101411.78;;;9.40;100.00
21357;BME280;10836;53.068;18.234;2023-04-16T12:08:04;101417.72;;;9.37;100.00
21357;BME280;10836;53.068;18.234;2023-04-16T12:10:33;101413.66;;;9.22;100.00
21357;BME280;10836;53.068;18.234;2023-04-16T12:13:13;101412.50;;;9.18;100.00
21357;BME280;10836;53.068;18.234;2023-04-16T12:15:48;101422.09;;;9.04;100.00
21357;BME280;10836;53.068;18.234;2023-04-16T12:18:20;101421.66;;;9.12;100.00
21357;BME280;10836;53.068;18.234;2023-04-16T12:20:49;101420.09;;;8.99;100.00
21357;BME280;10836;53.068;18.234;2023-04-16T12:23:26;101427.22;;;9.00;100.00
21357;BME280;10836;53.068;18.234;2023-04-16T12:25:54;101427.75;;;8.86;100.00
21357;BME280;10836;53.068;18.234;2023-04-16T12:28:31;101435.03;;;8.68;100.00
21357;BME280;10836;53.068;18.234;2023-04-16T12:30:59;101428.13;;;8.78;100.00
21357;BME280;10836;53.068;18.234;2023-04-16T12:33:26;101433.69;;;8.83;100.00
21357;BME280;10836;53.068;18.234;2023-04-16T12:35:54;101431.97;;;8.93;100.00
21357;BME280;10836;53.068;18.234;2023-04-16T12:38:21;101428.63;;;9.03;100.00
21357;BME280;10836;53.068;18.234;2023-04-16T12:40:51;101427.00;;;8.90;100.00
21357;BME280;10836;53.068;18.234;2023-04-16T12:43:19;101436.09;;;8.96;100.00
21357;BME280;10836;53.068;18.234;2023-04-16T12:45:46;101427.69;;;8.97;100.00
21357;BME280;10836;53.068;18.234;2023-04-16T12:48:13;101433.56;;;9.06;100.00
21357;BME280;10836;53.068;18.234;2023-04-16T12:50:40;101437.28;;;9.00;100.00
21357;BME280;10836;53.068;18.234;2023-04-16T12:53:10;101442.34;;;8.80;100.00
21357;BME280;10836;53.068;18.234;2023-04-16T12:55:37;101431.44;;;8.80;100.00
21357;BME280;10836;53.068;18.234;2023-04-16T12:58:04;101434.13;;;8.91;100.00
21357;BME280;10836;53.068;18.234;2023-04-16T13:00:32;101433.78;;;8.88;100.00